sensor_id;sensor_type;location;lat;lon;timestamp;temperature;humidity
7384;DHT22;3733;47.994;8.820;2024-01-30T00:01:13;0.20;99.90
7384;DHT22;3733;47.994;8.820;2024-01-30T00:03:39;0.20;99.90
7384;DHT22;3733;47.994;8.820;2024-01-30T00:06:04;0.20;99.90
7384;DHT22;3733;47.994;8.820;2024-01-30T00:08:30;0.20;99.90
7384;DHT22;3733;47.994;8.820;2024-01-30T00:10:55;0.20;99.90
7384;DHT22;3733;47.994;8.820;2024-01-30T00:13:21;0.20;99.90
7384;DHT22;3733;47.994;8.820;2024-01-30T00:15:48;0.10;99.90
7384;DHT22;3733;47.994;8.820;2024-01-30T00:18:14;0.10;99.90
7384;DHT22;3733;47.994;8.820;2024-01-30T00:20:40;0.10;99.90
7384;DHT22;3733;47.994;8.820;2024-01-30T00:23:06;0.10;99.90
7384;DHT22;3733;47.994;8.820;2024-01-30T00:25:31;0.10;99.90
7384;DHT22;3733;47.994;8.820;2024-01-30T00:27:58;0.10;99.90
7384;DHT22;3733;47.994;8.820;2024-01-30T00:30:24;0.10;99.90
7384;DHT22;3733;47.994;8.820;2024-01-30T00:32:49;0.10;99.90
7384;DHT22;3733;47.994;8.820;2024-01-30T00:35:15;0.10;99.90
7384;DHT22;3733;47.994;8.820;2024-01-30T00:37:41;0.10;99.90
7384;DHT22;3733;47.994;8.820;2024-01-30T00:40:07;0.10;99.90
7384;DHT22;3733;47.994;8.820;2024-01-30T00:42:33;0.10;99.90
7384;DHT22;3733;47.994;8.820;2024-01-30T00:44:58;0.10;99.90
7384;DHT22;3733;47.994;8.820;2024-01-30T00:47:24;0.10;99.90
7384;DHT22;3733;47.994;8.820;2024-01-30T00:49:50;0.10;99.90
7384;DHT22;3733;47.994;8.820;2024-01-30T00:52:15;0.10;99.90
7384;DHT22;3733;47.994;8.820;2024-01-30T00:54:41;0.00;99.90
7384;DHT22;3733;47.994;8.820;2024-01-30T00:57:07;0.00;99.90
7384;DHT22;3733;47.994;8.820;2024-01-30T00:59:33;-0.10;99.90
7384;DHT22;3733;47.994;8.820;2024-01-30T01:01:58;-0.10;99.90
7384;DHT22;3733;47.994;8.820;2024-01-30T01:04:24;-0.10;99.90
7384;DHT22;3733;47.994;8.820;2024-01-30T01:06:52;-0.10;99.90
7384;DHT22;3733;47.994;8.820;2024-01-30T01:09:18;-0.10;99.90
7384;DHT22;3733;47.994;8.820;2024-01-30T01:11:43;-0.10;99.90
7384;DHT22;3733;47.994;8.820;2024-01-30T01:14:09;-0.10;99.90
7384;DHT22;3733;47.994;8.820;2024-01-30T01:16:35;-0.10;99.90
7384;DHT22;3733;47.994;8.820;2024-01-30T01:19:00;-0.20;99.90
7384;DHT22;3733;47.994;8.820;2024-01-30T01:21:26;-0.20;99.90
7384;DHT22;3733;47.994;8.820;2024-01-30T01:23:52;-0.20;99.90
7384;DHT22;3733;47.994;8.820;2024-01-30T01:26:17;-0.20;99.90
7384;DHT22;3733;47.994;8.820;2024-01-30T01:28:43;-0.20;99.90
7384;DHT22;3733;47.994;8.820;2024-01-30T01:31:09;-0.20;99.90
7384;DHT22;3733;47.994;8.820;2024-01-30T01:33:34;-0.20;99.90
7384;DHT22;3733;47.994;8.820;2024-01-30T01:36:02;-0.20;99.90
7384;DHT22;3733;47.994;8.820;2024-01-30T01:38:28;-0.20;99.90
7384;DHT22;3733;47.994;8.820;2024-01-30T01:40:54;-0.20;99.90
7384;DHT22;3733;47.994;8.820;2024-01-30T01:43:19;-0.20;99.90
7384;DHT22;3733;47.994;8.820;2024-01-30T01:45:45;-0.20;99.90
7384;DHT22;3733;47.994;8.820;2024-01-30T01:48:11;-0.20;99.90
7384;DHT22;3733;47.994;8.820;2024-01-30T01:50:38;-0.20;99.90
7384;DHT22;3733;47.994;8.820;2024-01-30T01:53:06;-0.20;99.90
7384;DHT22;3733;47.994;8.820;2024-01-30T01:55:33;-0.20;99.90
7384;DHT22;3733;47.994;8.820;2024-01-30T01:58:00;-0.30;99.90
7384;DHT22;3733;47.994;8.820;2024-01-30T02:00:26;-0.30;99.90
7384;DHT22;3733;47.994;8.820;2024-01-30T02:02:53;-0.30;99.90
7384;DHT22;3733;47.994;8.820;2024-01-30T02:05:20;-0.30;99.90
7384;DHT22;3733;47.994;8.820;2024-01-30T02:07:46;-0.30;99.90
7384;DHT22;3733;47.994;8.820;2024-01-30T02:10:12;-0.30;99.90
7384;DHT22;3733;47.994;8.820;2024-01-30T02:12:38;-0.30;99.90
7384;DHT22;3733;47.994;8.820;2024-01-30T02:15:04;-0.40;99.90
7384;DHT22;3733;47.994;8.820;2024-01-30T02:17:30;-0.40;99.90
7384;DHT22;3733;47.994;8.820;2024-01-30T02:19:56;-0.40;99.90
7384;DHT22;3733;47.994;8.820;2024-01-30T02:22:22;-0.40;99.90
7384;DHT22;3733;47.994;8.820;2024-01-30T02:24:49;-0.40;99.90
7384;DHT22;3733;47.994;8.820;2024-01-30T02:27:15;-0.40;99.90
7384;DHT22;3733;47.994;8.820;2024-01-30T02:29:40;-0.40;99.90
7384;DHT22;3733;47.994;8.820;2024-01-30T02:32:06;-0.40;99.90
7384;DHT22;3733;47.994;8.820;2024-01-30T02:34:33;-0.40;99.90
7384;DHT22;3733;47.994;8.820;2024-01-30T02:36:58;-0.40;99.90
7384;DHT22;3733;47.994;8.820;2024-01-30T02:39:24;-0.40;99.90
7384;DHT22;3733;47.994;8.820;2024-01-30T02:41:50;-0.40;99.90
7384;DHT22;3733;47.994;8.820;2024-01-30T02:44:15;-0.40;99.90
7384;DHT22;3733;47.994;8.820;2024-01-30T02:46:41;-0.40;99.90
7384;DHT22;3733;47.994;8.820;2024-01-30T02:49:07;-0.40;99.90
7384;DHT22;3733;47.994;8.820;2024-01-30T02:51:32;-0.50;99.90
7384;DHT22;3733;47.994;8.820;2024-01-30T02:53:58;-0.50;99.90
7384;DHT22;3733;47.994;8.820;2024-01-30T02:56:23;-0.50;99.90
7384;DHT22;3733;47.994;8.820;2024-01-30T02:58:49;-0.50;99.90
7384;DHT22;3733;47.994;8.820;2024-01-30T03:01:14;-0.50;99.90
7384;DHT22;3733;47.994;8.820;2024-01-30T03:03:40;-0.50;99.90
7384;DHT22;3733;47.994;8.820;2024-01-30T03:06:06;-0.50;99.90
7384;DHT22;3733;47.994;8.820;2024-01-30T03:08:32;-0.50;99.90
7384;DHT22;3733;47.994;8.820;2024-01-30T03:11:00;-0.60;99.90
7384;DHT22;3733;47.994;8.820;2024-01-30T03:13:25;-0.50;99.90
7384;DHT22;3733;47.994;8.820;2024-01-30T03:15:51;-0.50;99.90
7384;DHT22;3733;47.994;8.820;2024-01-30T03:18:17;-0.60;99.90
7384;DHT22;3733;47.994;8.820;2024-01-30T03:20:43;-0.60;99.90
7384;DHT22;3733;47.994;8.820;2024-01-30T03:23:09;-0.60;99.90
7384;DHT22;3733;47.994;8.820;2024-01-30T03:25:34;-0.60;99.90
7384;DHT22;3733;47.994;8.820;2024-01-30T03:28:00;-0.60;99.90
7384;DHT22;3733;47.994;8.820;2024-01-30T03:30:25;-0.60;99.90
7384;DHT22;3733;47.994;8.820;2024-01-30T03:32:51;-0.70;99.90
7384;DHT22;3733;47.994;8.820;2024-01-30T03:35:18;-0.60;99.90
7384;DHT22;3733;47.994;8.820;2024-01-30T03:37:44;-0.70;99.90
7384;DHT22;3733;47.994;8.820;2024-01-30T03:40:09;-0.70;99.90
7384;DHT22;3733;47.994;8.820;2024-01-30T03:42:35;-0.70;99.90
7384;DHT22;3733;47.994;8.820;2024-01-30T03:45:01;-0.70;99.90
7384;DHT22;3733;47.994;8.820;2024-01-30T03:47:27;-0.70;99.90
7384;DHT22;3733;47.994;8.820;2024-01-30T03:49:53;-0.70;99.90
7384;DHT22;3733;47.994;8.820;2024-01-30T03:52:19;-0.70;99.90
7384;DHT22;3733;47.994;8.820;2024-01-30T03:54:44;-0.70;99.90
7384;DHT22;3733;47.994;8.820;2024-01-30T03:57:10;-0.70;99.90
7384;DHT22;3733;47.994;8.820;2024-01-30T03:59:35;-0.80;99.90
7384;DHT22;3733;47.994;8.820;2024-01-30T04:02:01;-0.80;99.90
7384;DHT22;3733;47.994;8.820;2024-01-30T04:04:26;-0.70;99.90
7384;DHT22;3733;47.994;8.820;2024-01-30T04:06:52;-0.70;99.90
7384;DHT22;3733;47.994;8.820;2024-01-30T04:09:18;-0.70;99.90
7384;DHT22;3733;47.994;8.820;2024-01-30T04:11:44;-0.80;99.90
7384;DHT22;3733;47.994;8.820;2024-01-30T04:14:10;-0.80;99.90
7384;DHT22;3733;47.994;8.820;2024-01-30T04:16:36;-0.80;99.90
7384;DHT22;3733;47.994;8.820;2024-01-30T04:19:02;-0.80;99.90
7384;DHT22;3733;47.994;8.820;2024-01-30T04:21:27;-0.80;99.90
7384;DHT22;3733;47.994;8.820;2024-01-30T04:23:53;-0.80;99.90
7384;DHT22;3733;47.994;8.820;2024-01-30T04:26:19;-0.80;99.90
7384;DHT22;3733;47.994;8.820;2024-01-30T04:28:45;-0.90;99.90
7384;DHT22;3733;47.994;8.820;2024-01-30T04:31:10;-0.90;99.90
7384;DHT22;3733;47.994;8.820;2024-01-30T04:33:36;-0.90;99.90
7384;DHT22;3733;47.994;8.820;2024-01-30T04:36:03;-0.90;99.90
7384;DHT22;3733;47.994;8.820;2024-01-30T04:38:29;-0.90;99.90
7384;DHT22;3733;47.994;8.820;2024-01-30T04:40:54;-0.90;99.90
7384;DHT22;3733;47.994;8.820;2024-01-30T04:43:20;-0.90;99.90
7384;DHT22;3733;47.994;8.820;2024-01-30T04:45:47;-0.90;99.90
7384;DHT22;3733;47.994;8.820;2024-01-30T04:48:12;-0.90;99.90
7384;DHT22;3733;47.994;8.820;2024-01-30T04:50:39;-0.90;99.90
7384;DHT22;3733;47.994;8.820;2024-01-30T04:53:04;-0.90;99.90
7384;DHT22;3733;47.994;8.820;2024-01-30T04:55:30;-0.90;99.90
7384;DHT22;3733;47.994;8.820;2024-01-30T04:57:55;-0.90;99.90
7384;DHT22;3733;47.994;8.820;2024-01-30T05:00:21;-0.90;99.90
7384;DHT22;3733;47.994;8.820;2024-01-30T05:02:46;-0.90;99.90
7384;DHT22;3733;47.994;8.820;2024-01-30T05:05:12;-0.90;99.90
7384;DHT22;3733;47.994;8.820;2024-01-30T05:07:40;-0.90;99.90
7384;DHT22;3733;47.994;8.820;2024-01-30T05:10:06;-0.90;99.90
7384;DHT22;3733;47.994;8.820;2024-01-30T05:12:32;-0.90;99.90
7384;DHT22;3733;47.994;8.820;2024-01-30T05:14:57;-0.90;99.90
7384;DHT22;3733;47.994;8.820;2024-01-30T05:17:23;-0.90;99.90
7384;DHT22;3733;47.994;8.820;2024-01-30T05:19:48;-0.90;99.90
7384;DHT22;3733;47.994;8.820;2024-01-30T05:22:14;-0.90;99.90
7384;DHT22;3733;47.994;8.820;2024-01-30T05:24:44;-0.90;99.90
7384;DHT22;3733;47.994;8.820;2024-01-30T05:27:10;-0.90;99.90
7384;DHT22;3733;47.994;8.820;2024-01-30T05:29:35;-0.90;99.90
7384;DHT22;3733;47.994;8.820;2024-01-30T05:32:01;-1.00;99.90
7384;DHT22;3733;47.994;8.820;2024-01-30T05:34:27;-1.00;99.90
7384;DHT22;3733;47.994;8.820;2024-01-30T05:36:53;-1.00;99.90
7384;DHT22;3733;47.994;8.820;2024-01-30T05:39:18;-1.00;99.90
7384;DHT22;3733;47.994;8.820;2024-01-30T05:41:44;-1.00;99.90
7384;DHT22;3733;47.994;8.820;2024-01-30T05:44:10;-1.00;99.90
7384;DHT22;3733;47.994;8.820;2024-01-30T05:46:35;-1.00;99.90
7384;DHT22;3733;47.994;8.820;2024-01-30T05:49:01;-1.10;99.90
7384;DHT22;3733;47.994;8.820;2024-01-30T05:51:26;-1.10;99.90
7384;DHT22;3733;47.994;8.820;2024-01-30T05:53:53;-1.10;99.90
7384;DHT22;3733;47.994;8.820;2024-01-30T05:56:19;-1.10;99.90
7384;DHT22;3733;47.994;8.820;2024-01-30T05:58:45;-1.10;99.90
7384;DHT22;3733;47.994;8.820;2024-01-30T06:01:10;-1.10;99.90
7384;DHT22;3733;47.994;8.820;2024-01-30T06:03:36;-1.10;99.90
7384;DHT22;3733;47.994;8.820;2024-01-30T06:06:02;-1.10;99.90
7384;DHT22;3733;47.994;8.820;2024-01-30T06:08:28;-1.10;99.90
7384;DHT22;3733;47.994;8.820;2024-01-30T06:10:53;-1.10;99.90
7384;DHT22;3733;47.994;8.820;2024-01-30T06:13:19;-1.10;99.90
7384;DHT22;3733;47.994;8.820;2024-01-30T06:15:45;-1.10;99.90
7384;DHT22;3733;47.994;8.820;2024-01-30T06:18:11;-1.10;99.90
7384;DHT22;3733;47.994;8.820;2024-01-30T06:20:36;-1.10;99.90
7384;DHT22;3733;47.994;8.820;2024-01-30T06:23:02;-1.10;99.90
7384;DHT22;3733;47.994;8.820;2024-01-30T06:25:28;-1.10;99.90
7384;DHT22;3733;47.994;8.820;2024-01-30T06:27:53;-1.10;99.90
7384;DHT22;3733;47.994;8.820;2024-01-30T06:30:19;-1.10;99.90
7384;DHT22;3733;47.994;8.820;2024-01-30T06:32:45;-1.10;99.90
7384;DHT22;3733;47.994;8.820;2024-01-30T06:35:10;-1.10;99.90
7384;DHT22;3733;47.994;8.820;2024-01-30T06:37:36;-1.10;99.90
7384;DHT22;3733;47.994;8.820;2024-01-30T06:40:02;-1.10;99.90
7384;DHT22;3733;47.994;8.820;2024-01-30T06:42:30;-1.10;99.90
7384;DHT22;3733;47.994;8.820;2024-01-30T06:44:55;-1.10;99.90
7384;DHT22;3733;47.994;8.820;2024-01-30T06:47:21;-1.10;99.90
7384;DHT22;3733;47.994;8.820;2024-01-30T06:49:47;-1.10;99.90
7384;DHT22;3733;47.994;8.820;2024-01-30T06:52:12;-1.10;99.90
7384;DHT22;3733;47.994;8.820;2024-01-30T06:54:38;-1.10;99.90
7384;DHT22;3733;47.994;8.820;2024-01-30T06:57:05;-1.10;99.90
7384;DHT22;3733;47.994;8.820;2024-01-30T06:59:34;-1.10;99.90
7384;DHT22;3733;47.994;8.820;2024-01-30T07:02:00;-1.10;99.90
7384;DHT22;3733;47.994;8.820;2024-01-30T07:04:25;-1.10;99.90
7384;DHT22;3733;47.994;8.820;2024-01-30T07:06:51;-1.00;99.90
7384;DHT22;3733;47.994;8.820;2024-01-30T07:09:18;-1.10;99.90
7384;DHT22;3733;47.994;8.820;2024-01-30T07:11:44;-1.00;99.90
7384;DHT22;3733;47.994;8.820;2024-01-30T07:14:09;-1.10;99.90
7384;DHT22;3733;47.994;8.820;2024-01-30T07:16:35;-1.10;99.90
7384;DHT22;3733;47.994;8.820;2024-01-30T07:19:01;-1.00;99.90
7384;DHT22;3733;47.994;8.820;2024-01-30T07:21:27;-1.10;99.90
7384;DHT22;3733;47.994;8.820;2024-01-30T07:23:56;-1.00;99.90
7384;DHT22;3733;47.994;8.820;2024-01-30T07:26:22;-1.00;99.90
7384;DHT22;3733;47.994;8.820;2024-01-30T07:28:48;-1.10;99.90
7384;DHT22;3733;47.994;8.820;2024-01-30T07:31:13;-1.10;99.90
7384;DHT22;3733;47.994;8.820;2024-01-30T07:33:39;-1.00;99.90
7384;DHT22;3733;47.994;8.820;2024-01-30T07:36:05;-1.00;99.90
7384;DHT22;3733;47.994;8.820;2024-01-30T07:38:34;-1.00;99.90
7384;DHT22;3733;47.994;8.820;2024-01-30T07:41:00;-1.00;99.90
7384;DHT22;3733;47.994;8.820;2024-01-30T07:43:25;-0.90;99.90
7384;DHT22;3733;47.994;8.820;2024-01-30T07:45:51;-0.90;99.90
7384;DHT22;3733;47.994;8.820;2024-01-30T07:48:16;-0.90;99.90
7384;DHT22;3733;47.994;8.820;2024-01-30T07:50:42;-0.90;99.90
7384;DHT22;3733;47.994;8.820;2024-01-30T07:53:08;-0.80;99.90
7384;DHT22;3733;47.994;8.820;2024-01-30T07:55:33;-0.80;99.90
7384;DHT22;3733;47.994;8.820;2024-01-30T07:57:59;-0.80;99.90
7384;DHT22;3733;47.994;8.820;2024-01-30T08:00:25;-0.70;99.90
7384;DHT22;3733;47.994;8.820;2024-01-30T08:02:51;-0.70;99.90
7384;DHT22;3733;47.994;8.820;2024-01-30T08:05:19;-0.70;99.90
7384;DHT22;3733;47.994;8.820;2024-01-30T08:07:45;-0.70;99.90
7384;DHT22;3733;47.994;8.820;2024-01-30T08:10:11;-0.60;99.90
7384;DHT22;3733;47.994;8.820;2024-01-30T08:12:38;-0.60;99.90
7384;DHT22;3733;47.994;8.820;2024-01-30T08:15:04;-0.60;99.90
7384;DHT22;3733;47.994;8.820;2024-01-30T08:17:30;-0.50;99.90
7384;DHT22;3733;47.994;8.820;2024-01-30T08:19:55;-0.50;99.90
7384;DHT22;3733;47.994;8.820;2024-01-30T08:22:21;-0.50;99.90
7384;DHT22;3733;47.994;8.820;2024-01-30T08:24:47;-0.40;99.90
7384;DHT22;3733;47.994;8.820;2024-01-30T08:27:12;-0.40;99.90
7384;DHT22;3733;47.994;8.820;2024-01-30T08:29:38;-0.30;99.90
7384;DHT22;3733;47.994;8.820;2024-01-30T08:32:06;-0.20;99.90
7384;DHT22;3733;47.994;8.820;2024-01-30T08:34:32;-0.20;99.90
7384;DHT22;3733;47.994;8.820;2024-01-30T08:36:58;-0.10;99.90
7384;DHT22;3733;47.994;8.820;2024-01-30T08:39:24;0.00;99.90
7384;DHT22;3733;47.994;8.820;2024-01-30T08:41:49;0.00;99.90
7384;DHT22;3733;47.994;8.820;2024-01-30T08:44:15;0.10;99.90
7384;DHT22;3733;47.994;8.820;2024-01-30T08:46:41;0.20;99.90
7384;DHT22;3733;47.994;8.820;2024-01-30T08:49:07;0.20;99.90
7384;DHT22;3733;47.994;8.820;2024-01-30T08:51:33;0.30;99.90
7384;DHT22;3733;47.994;8.820;2024-01-30T08:53:59;0.40;99.90
7384;DHT22;3733;47.994;8.820;2024-01-30T08:56:25;0.40;99.90
7384;DHT22;3733;47.994;8.820;2024-01-30T08:58:51;0.50;99.90
7384;DHT22;3733;47.994;8.820;2024-01-30T09:01:16;0.50;99.90
7384;DHT22;3733;47.994;8.820;2024-01-30T09:03:42;0.60;99.90
7384;DHT22;3733;47.994;8.820;2024-01-30T09:06:10;0.70;99.90
7384;DHT22;3733;47.994;8.820;2024-01-30T09:08:36;0.80;99.90
7384;DHT22;3733;47.994;8.820;2024-01-30T09:11:11;0.90;99.90
7384;DHT22;3733;47.994;8.820;2024-01-30T09:13:37;1.00;99.90
7384;DHT22;3733;47.994;8.820;2024-01-30T09:16:04;1.10;99.90
7384;DHT22;3733;47.994;8.820;2024-01-30T09:18:30;1.20;99.90
7384;DHT22;3733;47.994;8.820;2024-01-30T09:20:55;1.20;99.90
7384;DHT22;3733;47.994;8.820;2024-01-30T09:23:21;1.30;99.90
7384;DHT22;3733;47.994;8.820;2024-01-30T09:25:47;1.40;99.90
7384;DHT22;3733;47.994;8.820;2024-01-30T09:28:12;1.40;99.90
7384;DHT22;3733;47.994;8.820;2024-01-30T09:30:38;1.50;99.90
7384;DHT22;3733;47.994;8.820;2024-01-30T09:33:04;1.70;99.90
7384;DHT22;3733;47.994;8.820;2024-01-30T09:35:30;1.80;99.90
7384;DHT22;3733;47.994;8.820;2024-01-30T09:37:56;1.90;99.90
7384;DHT22;3733;47.994;8.820;2024-01-30T09:40:23;2.00;99.90
7384;DHT22;3733;47.994;8.820;2024-01-30T09:42:50;2.10;99.90
7384;DHT22;3733;47.994;8.820;2024-01-30T09:45:18;2.20;99.90
7384;DHT22;3733;47.994;8.820;2024-01-30T09:47:45;2.30;99.90
7384;DHT22;3733;47.994;8.820;2024-01-30T09:50:13;2.40;99.90
7384;DHT22;3733;47.994;8.820;2024-01-30T09:52:39;2.50;99.90
7384;DHT22;3733;47.994;8.820;2024-01-30T09:55:06;2.60;99.90
7384;DHT22;3733;47.994;8.820;2024-01-30T09:57:32;2.60;99.90
7384;DHT22;3733;47.994;8.820;2024-01-30T09:59:58;2.60;99.90
7384;DHT22;3733;47.994;8.820;2024-01-30T10:02:24;2.70;99.90
7384;DHT22;3733;47.994;8.820;2024-01-30T10:04:51;2.70;99.90
7384;DHT22;3733;47.994;8.820;2024-01-30T10:07:18;2.80;99.90
7384;DHT22;3733;47.994;8.820;2024-01-30T10:09:44;2.80;99.90
7384;DHT22;3733;47.994;8.820;2024-01-30T10:12:10;2.80;99.90
7384;DHT22;3733;47.994;8.820;2024-01-30T10:14:39;2.90;99.90
7384;DHT22;3733;47.994;8.820;2024-01-30T10:17:06;3.00;99.90
7384;DHT22;3733;47.994;8.820;2024-01-30T10:19:32;3.00;99.90
7384;DHT22;3733;47.994;8.820;2024-01-30T10:22:00;3.10;99.90
7384;DHT22;3733;47.994;8.820;2024-01-30T10:24:26;3.20;99.90
7384;DHT22;3733;47.994;8.820;2024-01-30T10:26:53;3.20;99.90
7384;DHT22;3733;47.994;8.820;2024-01-30T10:29:18;3.30;99.90
7384;DHT22;3733;47.994;8.820;2024-01-30T10:31:44;3.40;99.90
7384;DHT22;3733;47.994;8.820;2024-01-30T10:34:10;3.50;99.90
7384;DHT22;3733;47.994;8.820;2024-01-30T10:36:40;3.60;99.90
7384;DHT22;3733;47.994;8.820;2024-01-30T10:39:07;3.70;99.90
7384;DHT22;3733;47.994;8.820;2024-01-30T10:41:38;3.70;99.90
7384;DHT22;3733;47.994;8.820;2024-01-30T10:44:09;3.80;99.90
7384;DHT22;3733;47.994;8.820;2024-01-30T10:46:35;3.80;99.90
7384;DHT22;3733;47.994;8.820;2024-01-30T10:49:02;3.90;99.90
7384;DHT22;3733;47.994;8.820;2024-01-30T10:51:29;3.90;99.90
7384;DHT22;3733;47.994;8.820;2024-01-30T10:53:56;4.00;99.90
7384;DHT22;3733;47.994;8.820;2024-01-30T10:56:23;4.00;99.90
7384;DHT22;3733;47.994;8.820;2024-01-30T10:58:52;4.10;99.90
7384;DHT22;3733;47.994;8.820;2024-01-30T11:01:22;4.30;99.90
7384;DHT22;3733;47.994;8.820;2024-01-30T11:03:52;4.50;99.90
7384;DHT22;3733;47.994;8.820;2024-01-30T11:06:18;4.60;99.90
7384;DHT22;3733;47.994;8.820;2024-01-30T11:08:45;4.90;99.90
7384;DHT22;3733;47.994;8.820;2024-01-30T11:11:11;5.10;99.90
7384;DHT22;3733;47.994;8.820;2024-01-30T11:13:37;5.30;99.90
7384;DHT22;3733;47.994;8.820;2024-01-30T11:16:03;5.60;99.90
7384;DHT22;3733;47.994;8.820;2024-01-30T11:18:31;5.90;99.90
7384;DHT22;3733;47.994;8.820;2024-01-30T11:20:58;6.10;99.90
7384;DHT22;3733;47.994;8.820;2024-01-30T11:23:25;6.30;99.90
7384;DHT22;3733;47.994;8.820;2024-01-30T11:25:53;6.40;99.90
7384;DHT22;3733;47.994;8.820;2024-01-30T11:28:19;6.50;99.90
7384;DHT22;3733;47.994;8.820;2024-01-30T11:30:46;6.60;99.90
7384;DHT22;3733;47.994;8.820;2024-01-30T11:33:14;6.70;99.90
7384;DHT22;3733;47.994;8.820;2024-01-30T11:35:44;6.80;99.90
7384;DHT22;3733;47.994;8.820;2024-01-30T11:38:12;6.90;99.50
7384;DHT22;3733;47.994;8.820;2024-01-30T11:40:39;7.10;98.50
7384;DHT22;3733;47.994;8.820;2024-01-30T11:43:07;7.10;96.70
7384;DHT22;3733;47.994;8.820;2024-01-30T11:45:34;7.20;94.70
7384;DHT22;3733;47.994;8.820;2024-01-30T11:48:00;7.20;93.70
7384;DHT22;3733;47.994;8.820;2024-01-30T11:50:29;7.20;93.10
7384;DHT22;3733;47.994;8.820;2024-01-30T11:52:55;7.30;92.60
7384;DHT22;3733;47.994;8.820;2024-01-30T11:55:20;7.30;92.30
7384;DHT22;3733;47.994;8.820;2024-01-30T11:57:46;7.40;92.10
7384;DHT22;3733;47.994;8.820;2024-01-30T12:00:16;7.50;92.10
7384;DHT22;3733;47.994;8.820;2024-01-30T12:02:43;7.60;91.20
7384;DHT22;3733;47.994;8.820;2024-01-30T12:05:09;7.70;90.50
7384;DHT22;3733;47.994;8.820;2024-01-30T12:07:37;7.80;90.10
7384;DHT22;3733;47.994;8.820;2024-01-30T12:10:03;7.80;89.10
7384;DHT22;3733;47.994;8.820;2024-01-30T12:12:31;7.90;87.60
7384;DHT22;3733;47.994;8.820;2024-01-30T12:14:57;8.00;84.40
7384;DHT22;3733;47.994;8.820;2024-01-30T12:17:33;8.10;80.10
7384;DHT22;3733;47.994;8.820;2024-01-30T12:22:37;8.30;75.20
7384;DHT22;3733;47.994;8.820;2024-01-30T12:25:11;8.40;74.80
7384;DHT22;3733;47.994;8.820;2024-01-30T12:27:37;8.50;72.90
7384;DHT22;3733;47.994;8.820;2024-01-30T12:30:07;8.60;71.10
7384;DHT22;3733;47.994;8.820;2024-01-30T12:32:39;8.70;70.80
7384;DHT22;3733;47.994;8.820;2024-01-30T12:35:11;8.70;69.70
7384;DHT22;3733;47.994;8.820;2024-01-30T12:37:37;8.80;68.90
7384;DHT22;3733;47.994;8.820;2024-01-30T12:40:03;8.80;68.10
7384;DHT22;3733;47.994;8.820;2024-01-30T12:42:29;8.90;67.90
7384;DHT22;3733;47.994;8.820;2024-01-30T12:45:00;8.90;67.70
7384;DHT22;3733;47.994;8.820;2024-01-30T12:47:26;8.90;67.10
7384;DHT22;3733;47.994;8.820;2024-01-30T12:49:51;8.90;66.60
7384;DHT22;3733;47.994;8.820;2024-01-30T12:52:19;8.90;65.80
7384;DHT22;3733;47.994;8.820;2024-01-30T12:54:46;9.00;65.40
7384;DHT22;3733;47.994;8.820;2024-01-30T12:57:11;9.00;64.70
7384;DHT22;3733;47.994;8.820;2024-01-30T12:59:37;9.00;64.30
7384;DHT22;3733;47.994;8.820;2024-01-30T13:02:03;9.10;64.30
7384;DHT22;3733;47.994;8.820;2024-01-30T13:04:29;9.20;63.20
7384;DHT22;3733;47.994;8.820;2024-01-30T13:06:55;9.30;63.20
7384;DHT22;3733;47.994;8.820;2024-01-30T13:09:21;9.30;62.60
7384;DHT22;3733;47.994;8.820;2024-01-30T13:11:46;9.50;61.30
7384;DHT22;3733;47.994;8.820;2024-01-30T13:14:12;9.60;61.40
7384;DHT22;3733;47.994;8.820;2024-01-30T13:16:38;9.70;61.00
7384;DHT22;3733;47.994;8.820;2024-01-30T13:19:03;9.70;59.80
7384;DHT22;3733;47.994;8.820;2024-01-30T13:21:29;9.80;58.70
7384;DHT22;3733;47.994;8.820;2024-01-30T13:23:55;9.90;58.60
7384;DHT22;3733;47.994;8.820;2024-01-30T13:26:21;9.90;58.20
7384;DHT22;3733;47.994;8.820;2024-01-30T13:28:47;10.00;56.90
7384;DHT22;3733;47.994;8.820;2024-01-30T13:31:14;10.00;56.90
7384;DHT22;3733;47.994;8.820;2024-01-30T13:33:40;10.10;56.50
7384;DHT22;3733;47.994;8.820;2024-01-30T13:36:07;10.20;55.80
7384;DHT22;3733;47.994;8.820;2024-01-30T13:38:33;10.30;55.00
7384;DHT22;3733;47.994;8.820;2024-01-30T13:40:59;10.40;54.20
7384;DHT22;3733;47.994;8.820;2024-01-30T13:43:25;10.40;53.40
7384;DHT22;3733;47.994;8.820;2024-01-30T13:45:51;10.50;53.60
7384;DHT22;3733;47.994;8.820;2024-01-30T13:48:17;10.70;53.40
7384;DHT22;3733;47.994;8.820;2024-01-30T13:50:42;11.00;52.60
7384;DHT22;3733;47.994;8.820;2024-01-30T13:53:08;11.10;52.00
7384;DHT22;3733;47.994;8.820;2024-01-30T13:55:34;11.30;51.60
7384;DHT22;3733;47.994;8.820;2024-01-30T13:58:00;11.70;51.00
7384;DHT22;3733;47.994;8.820;2024-01-30T14:00:27;11.90;50.20
7384;DHT22;3733;47.994;8.820;2024-01-30T14:02:52;12.10;49.90
7384;DHT22;3733;47.994;8.820;2024-01-30T14:05:20;12.30;49.60
7384;DHT22;3733;47.994;8.820;2024-01-30T14:07:47;12.50;48.90
7384;DHT22;3733;47.994;8.820;2024-01-30T14:10:12;12.60;48.50
7384;DHT22;3733;47.994;8.820;2024-01-30T14:12:38;12.60;48.10
7384;DHT22;3733;47.994;8.820;2024-01-30T14:15:04;12.40;48.30
7384;DHT22;3733;47.994;8.820;2024-01-30T14:17:30;12.30;48.40
7384;DHT22;3733;47.994;8.820;2024-01-30T14:19:56;12.30;48.60
7384;DHT22;3733;47.994;8.820;2024-01-30T14:22:21;12.30;48.50
7384;DHT22;3733;47.994;8.820;2024-01-30T14:24:47;12.30;48.80
7384;DHT22;3733;47.994;8.820;2024-01-30T14:27:13;12.10;48.90
7384;DHT22;3733;47.994;8.820;2024-01-30T14:29:39;12.00;48.90
7384;DHT22;3733;47.994;8.820;2024-01-30T14:32:05;11.80;49.00
7384;DHT22;3733;47.994;8.820;2024-01-30T14:34:30;11.60;49.50
7384;DHT22;3733;47.994;8.820;2024-01-30T14:36:56;11.50;49.80
7384;DHT22;3733;47.994;8.820;2024-01-30T14:39:22;11.30;50.10
7384;DHT22;3733;47.994;8.820;2024-01-30T14:41:47;11.20;50.50
7384;DHT22;3733;47.994;8.820;2024-01-30T14:44:13;11.10;50.80
7384;DHT22;3733;47.994;8.820;2024-01-30T14:46:39;10.90;51.00
7384;DHT22;3733;47.994;8.820;2024-01-30T14:49:05;10.90;51.30
7384;DHT22;3733;47.994;8.820;2024-01-30T14:51:33;10.80;51.60
7384;DHT22;3733;47.994;8.820;2024-01-30T14:53:59;10.70;51.70
7384;DHT22;3733;47.994;8.820;2024-01-30T14:56:25;10.60;52.00
7384;DHT22;3733;47.994;8.820;2024-01-30T14:58:51;10.60;52.40
7384;DHT22;3733;47.994;8.820;2024-01-30T15:01:17;10.50;52.70
7384;DHT22;3733;47.994;8.820;2024-01-30T15:03:43;10.40;53.20
7384;DHT22;3733;47.994;8.820;2024-01-30T15:06:09;10.30;53.70
7384;DHT22;3733;47.994;8.820;2024-01-30T15:08:35;10.20;54.30
7384;DHT22;3733;47.994;8.820;2024-01-30T15:11:00;10.10;54.80
7384;DHT22;3733;47.994;8.820;2024-01-30T15:13:29;10.10;55.50
7384;DHT22;3733;47.994;8.820;2024-01-30T15:15:55;9.90;56.80
7384;DHT22;3733;47.994;8.820;2024-01-30T15:18:21;9.80;57.30
7384;DHT22;3733;47.994;8.820;2024-01-30T15:20:46;9.70;57.80
7384;DHT22;3733;47.994;8.820;2024-01-30T15:23:12;9.70;58.30
7384;DHT22;3733;47.994;8.820;2024-01-30T15:25:37;9.60;58.70
7384;DHT22;3733;47.994;8.820;2024-01-30T15:28:03;9.50;59.30
7384;DHT22;3733;47.994;8.820;2024-01-30T15:30:29;9.40;59.60
7384;DHT22;3733;47.994;8.820;2024-01-30T15:32:54;9.30;59.90
7384;DHT22;3733;47.994;8.820;2024-01-30T15:35:20;9.20;60.20
7384;DHT22;3733;47.994;8.820;2024-01-30T15:37:45;9.10;60.60
7384;DHT22;3733;47.994;8.820;2024-01-30T15:40:12;9.00;60.90
7384;DHT22;3733;47.994;8.820;2024-01-30T15:42:37;9.00;61.40
7384;DHT22;3733;47.994;8.820;2024-01-30T15:45:03;8.90;61.70
7384;DHT22;3733;47.994;8.820;2024-01-30T15:47:29;8.80;62.00
7384;DHT22;3733;47.994;8.820;2024-01-30T15:49:55;8.70;62.40
7384;DHT22;3733;47.994;8.820;2024-01-30T15:52:20;8.60;62.60
7384;DHT22;3733;47.994;8.820;2024-01-30T15:54:46;8.60;63.60
7384;DHT22;3733;47.994;8.820;2024-01-30T15:57:12;8.50;63.30
7384;DHT22;3733;47.994;8.820;2024-01-30T15:59:38;8.50;63.70
7384;DHT22;3733;47.994;8.820;2024-01-30T16:02:04;8.40;63.80